Time;durP1;ratioP1;P1;durP2;ratioP2;P2;SDS_P1;SDS_P2;PMS_P1;PMS_P2;Temp;Humidity;BMP_temperature;BMP_pressure;BME280_temperature;BME280_humidity;BME280_pressure;Samples;Min_cycle;Max_cycle;Signal;HPM_P1;HPM_P2
2023/07/26 00:02:24;;;;;;;;;;;;;;;23.80;36.73;100617.50;5061037;28;19962;-83
2023/07/26 00:04:49;;;;;;;;;;;;;;;23.79;36.70;100615.91;5067076;28;19928;-83
2023/07/26 00:07:15;;;;;;;;;;;;;;;23.75;36.80;100625.94;5066857;28;20018;-82
2023/07/26 00:09:40;;;;;;;;;;;;;;;23.75;36.56;100623.22;5058133;28;19927;-82
2023/07/26 00:12:05;;;;;;;;;;;;;;;23.75;36.76;100630.63;5064564;28;19927;-83
2023/07/26 00:14:31;;;;;;;;;;;;;;;23.75;36.68;100628.69;5066579;28;19951;-82
2023/07/26 00:16:56;;;;;;;;;;;;;;;23.73;36.69;100636.44;5068004;28;19926;-82
2023/07/26 00:19:23;;;;;;;;;;;;;;;23.70;36.66;100631.66;5064894;28;20407;-82
2023/07/26 00:21:49;;;;;;;;;;;;;;;23.66;36.54;100641.66;5061631;28;19917;-82
2023/07/26 00:24:14;;;;;;;;;;;;;;;23.66;36.77;100630.72;5066485;28;19921;-82
2023/07/26 00:26:40;;;;;;;;;;;;;;;23.65;36.63;100636.50;5066089;28;20342;-82
2023/07/26 00:29:05;;;;;;;;;;;;;;;23.59;36.65;100630.47;5064210;28;19963;-82
2023/07/26 00:31:30;;;;;;;;;;;;;;;23.57;36.84;100631.94;5065124;28;19924;-82
2023/07/26 00:33:55;;;;;;;;;;;;;;;23.55;36.85;100635.00;5067204;28;19924;-83
2023/07/26 00:36:21;;;;;;;;;;;;;;;23.50;36.96;100637.91;5066560;28;19920;-82
2023/07/26 00:38:46;;;;;;;;;;;;;;;23.43;36.92;100640.41;5068181;28;19947;-82
2023/07/26 00:41:12;;;;;;;;;;;;;;;23.40;37.06;100635.63;5062571;28;20563;-82
2023/07/26 00:43:37;;;;;;;;;;;;;;;23.39;37.03;100639.50;5067013;28;19917;-82
2023/07/26 00:46:03;;;;;;;;;;;;;;;23.36;37.04;100637.44;5067584;28;20334;-83
2023/07/26 00:48:29;;;;;;;;;;;;;;;23.32;37.05;100644.69;5066964;28;19924;-82
2023/07/26 00:50:55;;;;;;;;;;;;;;;23.29;37.07;100648.09;5062744;28;20082;-82
2023/07/26 00:53:20;;;;;;;;;;;;;;;23.22;37.23;100654.13;5063058;28;19916;-82
2023/07/26 00:55:45;;;;;;;;;;;;;;;23.18;37.18;100650.47;5060298;28;19917;-82
2023/07/26 00:58:11;;;;;;;;;;;;;;;23.16;37.08;100655.44;5063062;28;19938;-82
2023/07/26 01:00:39;;;;;;;;;;;;;;;23.10;37.10;100652.13;5064217;28;19935;-83
2023/07/26 01:03:05;;;;;;;;;;;;;;;23.03;37.25;100653.81;5065153;28;20384;-83
2023/07/26 01:05:32;;;;;;;;;;;;;;;22.99;37.09;100658.34;5065464;28;19927;-83
2023/07/26 01:08:13;;;;;;;;;;;;;;;22.96;37.03;100661.72;5067367;28;20300;-83
2023/07/26 01:10:42;;;;;;;;;;;;;;;22.86;37.12;100657.47;5059703;28;20300;-82
2023/07/26 01:13:15;;;;;;;;;;;;;;;22.80;37.34;100664.22;5063302;28;19932;-82
2023/07/26 01:15:41;;;;;;;;;;;;;;;22.76;37.38;100669.56;5067955;28;19924;-82
2023/07/26 01:18:10;;;;;;;;;;;;;;;22.72;37.38;100665.09;5067685;28;19959;-82
2023/07/26 01:20:35;;;;;;;;;;;;;;;22.70;37.49;100673.63;5064807;28;20355;-82
2023/07/26 01:23:01;;;;;;;;;;;;;;;22.68;37.78;100669.63;5063271;28;19925;-82
2023/07/26 01:25:26;;;;;;;;;;;;;;;22.66;37.76;100666.41;5065738;28;19925;-82
2023/07/26 01:27:51;;;;;;;;;;;;;;;22.64;37.53;100660.50;5065051;28;19916;-82
2023/07/26 01:30:17;;;;;;;;;;;;;;;22.57;37.73;100669.19;5062176;28;19994;-82
2023/07/26 01:32:43;;;;;;;;;;;;;;;22.54;37.81;100670.66;5062919;28;19955;-82
2023/07/26 01:35:09;;;;;;;;;;;;;;;22.56;37.82;100676.59;5064762;28;20006;-83
2023/07/26 01:37:35;;;;;;;;;;;;;;;22.54;37.87;100678.84;5065181;28;20402;-82
2023/07/26 01:40:00;;;;;;;;;;;;;;;22.52;37.86;100680.31;5062733;28;19922;-82
2023/07/26 01:42:26;;;;;;;;;;;;;;;22.46;38.32;100684.38;5057829;28;19927;-82
2023/07/26 01:44:51;;;;;;;;;;;;;;;22.39;38.08;100693.06;5062383;28;20376;-82
2023/07/26 01:47:16;;;;;;;;;;;;;;;22.33;38.18;100683.47;5065907;28;19999;-82
2023/07/26 01:49:42;;;;;;;;;;;;;;;22.30;38.50;100679.47;5063502;28;19916;-82
2023/07/26 01:52:07;;;;;;;;;;;;;;;22.26;38.61;100683.97;5061267;28;20327;-83
2023/07/26 01:54:32;;;;;;;;;;;;;;;22.21;38.43;100688.81;5067062;28;19917;-82
2023/07/26 01:56:58;;;;;;;;;;;;;;;22.19;38.46;100689.13;5062268;28;20316;-84
2023/07/26 01:59:23;;;;;;;;;;;;;;;22.14;38.60;100683.06;5063404;28;19938;-82
2023/07/26 02:01:48;;;;;;;;;;;;;;;22.09;38.87;100688.72;5061148;28;20023;-82
2023/07/26 02:04:14;;;;;;;;;;;;;;;22.08;38.92;100687.88;5065137;28;20423;-82
2023/07/26 02:06:39;;;;;;;;;;;;;;;22.04;39.02;100689.63;5066419;28;20380;-82
2023/07/26 02:09:05;;;;;;;;;;;;;;;21.98;38.96;100683.56;5062879;28;20396;-82
2023/07/26 02:11:30;;;;;;;;;;;;;;;21.98;39.06;100680.84;5061357;28;19927;-83
2023/07/26 02:13:56;;;;;;;;;;;;;;;21.94;39.01;100682.63;5064913;28;19920;-82
2023/07/26 02:16:21;;;;;;;;;;;;;;;21.85;40.00;100689.22;5065262;28;20421;-82
2023/07/26 02:18:46;;;;;;;;;;;;;;;21.83;39.34;100686.81;5064178;28;19917;-82
2023/07/26 02:21:12;;;;;;;;;;;;;;;21.83;39.31;100692.28;5063898;28;19956;-83
2023/07/26 02:23:37;;;;;;;;;;;;;;;21.84;39.66;100687.59;5067161;28;19916;-82
2023/07/26 02:26:03;;;;;;;;;;;;;;;21.86;39.52;100697.06;5065464;28;19928;-82
2023/07/26 02:28:28;;;;;;;;;;;;;;;21.87;38.90;100693.22;5066951;28;20347;-83
2023/07/26 02:30:53;;;;;;;;;;;;;;;21.83;38.98;100699.66;5065134;28;19924;-82
2023/07/26 02:33:18;;;;;;;;;;;;;;;21.83;39.21;100705.91;5066208;28;19951;-83
2023/07/26 02:35:44;;;;;;;;;;;;;;;21.80;39.02;100706.56;5065101;28;20323;-82
2023/07/26 02:38:10;;;;;;;;;;;;;;;21.81;39.14;100716.34;5065332;28;19930;-83
2023/07/26 02:40:36;;;;;;;;;;;;;;;21.78;39.32;100705.28;5065082;28;20354;-82
2023/07/26 02:43:01;;;;;;;;;;;;;;;21.75;39.38;100706.75;5066822;28;19920;-82
2023/07/26 02:45:27;;;;;;;;;;;;;;;21.72;39.33;100710.09;5070314;28;20316;-82
2023/07/26 02:47:52;;;;;;;;;;;;;;;21.68;39.08;100709.13;5065452;28;19920;-82
2023/07/26 02:50:18;;;;;;;;;;;;;;;21.66;39.28;100717.63;5069389;28;20021;-82
2023/07/26 02:52:43;;;;;;;;;;;;;;;21.61;39.24;100720.53;5064945;28;20318;-82
2023/07/26 02:55:08;;;;;;;;;;;;;;;21.58;39.19;100723.91;5067134;28;19921;-82
2023/07/26 02:57:33;;;;;;;;;;;;;;;21.50;39.58;100716.53;5064669;28;20380;-82
2023/07/26 02:59:59;;;;;;;;;;;;;;;21.46;39.10;100723.75;5066867;28;20363;-82
2023/07/26 03:02:24;;;;;;;;;;;;;;;21.44;39.38;100727.94;5069456;28;19920;-82
2023/07/26 03:04:49;;;;;;;;;;;;;;;21.42;39.31;100731.78;5066047;28;19920;-82
2023/07/26 03:07:15;;;;;;;;;;;;;;;21.39;39.57;100732.44;5064611;28;19942;-82
2023/07/26 03:09:40;;;;;;;;;;;;;;;21.33;39.50;100739.13;5052922;28;19927;-82
2023/07/26 03:12:06;;;;;;;;;;;;;;;21.28;39.65;100746.69;5054771;28;20025;-82
2023/07/26 03:14:31;;;;;;;;;;;;;;;21.27;39.57;100742.34;5055721;28;20461;-82
2023/07/26 03:16:56;;;;;;;;;;;;;;;21.23;39.61;100747.63;5058438;28;19954;-83
2023/07/26 03:19:21;;;;;;;;;;;;;;;21.16;39.74;100752.72;5060055;28;19920;-82
2023/07/26 03:21:47;;;;;;;;;;;;;;;21.13;39.81;100750.63;5058746;28;19928;-82
2023/07/26 03:24:12;;;;;;;;;;;;;;;21.10;39.81;100748.56;5058350;28;20448;-82
2023/07/26 03:26:37;;;;;;;;;;;;;;;21.08;39.67;100748.06;5055652;28;19951;-82
2023/07/26 03:29:03;;;;;;;;;;;;;;;21.04;39.83;100758.81;5065210;28;19974;-82
2023/07/26 03:31:28;;;;;;;;;;;;;;;20.96;39.97;100751.41;5065748;28;19921;-82
2023/07/26 03:33:53;;;;;;;;;;;;;;;20.92;39.91;100755.91;5064654;28;20007;-82
2023/07/26 03:36:19;;;;;;;;;;;;;;;20.88;40.09;100757.66;5066872;28;19956;-82
2023/07/26 03:38:44;;;;;;;;;;;;;;;20.84;40.21;100769.50;5063858;28;19921;-82
2023/07/26 03:41:09;;;;;;;;;;;;;;;20.81;40.14;100765.47;5066526;28;21895;-82
2023/07/26 03:43:34;;;;;;;;;;;;;;;20.77;40.24;100765.28;5063805;28;20207;-83
2023/07/26 03:46:00;;;;;;;;;;;;;;;20.71;40.17;100766.56;5063034;28;20395;-82
2023/07/26 03:48:25;;;;;;;;;;;;;;;20.64;40.00;100771.66;5064653;28;19954;-82
2023/07/26 03:50:50;;;;;;;;;;;;;;;20.59;40.19;100773.72;5062101;28;20611;-82
2023/07/26 03:53:16;;;;;;;;;;;;;;;20.50;40.54;100776.41;5061346;28;19979;-82
2023/07/26 03:55:41;;;;;;;;;;;;;;;20.47;40.58;100777.06;5061810;28;19921;-82
2023/07/26 03:58:06;;;;;;;;;;;;;;;20.48;40.25;100789.53;5064275;28;19971;-82
2023/07/26 04:00:32;;;;;;;;;;;;;;;20.52;40.33;100791.31;5063503;28;19927;-83
2023/07/26 04:02:57;;;;;;;;;;;;;;;20.56;40.73;100796.13;5064275;28;19951;-82
2023/07/26 04:05:22;;;;;;;;;;;;;;;20.59;40.30;100795.50;5059132;28;20142;-83
2023/07/26 04:07:48;;;;;;;;;;;;;;;20.57;40.43;100801.25;5060686;28;20082;-83
2023/07/26 04:10:13;;;;;;;;;;;;;;;20.58;40.32;100802.06;5059620;28;19995;-82
2023/07/26 04:12:38;;;;;;;;;;;;;;;20.58;40.42;100804.78;5062199;28;19917;-82
2023/07/26 04:15:04;;;;;;;;;;;;;;;20.61;40.54;100809.59;5064328;28;19959;-82
2023/07/26 04:17:29;;;;;;;;;;;;;;;20.64;40.44;100807.03;5061853;28;19924;-82
2023/07/26 04:19:54;;;;;;;;;;;;;;;20.66;40.65;100806.75;5064651;28;19927;-82
2023/07/26 04:22:20;;;;;;;;;;;;;;;20.70;40.43;100813.16;5065252;28;20469;-82
2023/07/26 04:24:46;;;;;;;;;;;;;;;20.70;40.69;100813.97;5061183;28;19935;-83
2023/07/26 04:27:11;;;;;;;;;;;;;;;20.73;40.53;100818.78;5062416;28;19921;-82
2023/07/26 04:29:36;;;;;;;;;;;;;;;20.73;40.57;100816.06;5061510;28;19917;-83
2023/07/26 04:32:02;;;;;;;;;;;;;;;20.74;40.51;100820.38;5061185;28;19917;-82
2023/07/26 04:34:27;;;;;;;;;;;;;;;20.71;40.61;100821.03;5061623;28;19917;-81
2023/07/26 04:36:52;;;;;;;;;;;;;;;20.75;40.33;100829.34;5060494;28;20373;-84
2023/07/26 04:39:18;;;;;;;;;;;;;;;20.75;40.59;100824.72;5061103;28;19924;-83
2023/07/26 04:41:43;;;;;;;;;;;;;;;20.80;40.70;100826.50;5058949;28;20342;-82
2023/07/26 04:44:08;;;;;;;;;;;;;;;20.81;40.62;100833.53;5061164;28;19920;-82
2023/07/26 04:46:34;;;;;;;;;;;;;;;20.76;40.79;100833.69;5061326;28;20028;-82
2023/07/26 04:48:59;;;;;;;;;;;;;;;20.73;40.86;100835.13;5060027;28;19923;-83
2023/07/26 04:51:24;;;;;;;;;;;;;;;20.76;41.04;100839.13;5062044;28;20288;-82
2023/07/26 04:53:50;;;;;;;;;;;;;;;20.81;40.69;100837.06;5057923;28;19925;-82
2023/07/26 04:56:16;;;;;;;;;;;;;;;20.89;41.08;100837.44;5057919;28;19917;-82
2023/07/26 04:58:42;;;;;;;;;;;;;;;20.86;40.95;100840.78;5058414;28;20370;-83
2023/07/26 05:01:07;;;;;;;;;;;;;;;20.83;40.79;100833.25;5058705;28;20489;-82
2023/07/26 05:03:34;;;;;;;;;;;;;;;20.78;40.96;100837.69;5059712;28;19916;-82
2023/07/26 05:05:59;;;;;;;;;;;;;;;20.83;41.96;100842.22;5058682;28;19956;-82
2023/07/26 05:08:25;;;;;;;;;;;;;;;20.86;41.15;100838.06;5058822;28;19958;-82
2023/07/26 05:10:50;;;;;;;;;;;;;;;20.88;41.16;100838.53;5063131;28;19920;-82
2023/07/26 05:13:16;;;;;;;;;;;;;;;20.89;41.00;100840.16;5061817;28;20226;-82
2023/07/26 05:15:41;;;;;;;;;;;;;;;20.94;41.50;100845.44;5062226;28;20416;-84
2023/07/26 05:18:06;;;;;;;;;;;;;;;21.01;41.55;100841.16;5061094;28;20355;-83
2023/07/26 05:20:32;;;;;;;;;;;;;;;21.11;41.55;100845.50;5060394;28;19987;-83
2023/07/26 05:22:57;;;;;;;;;;;;;;;21.17;40.75;100843.44;5057824;28;20343;-83
2023/07/26 05:25:22;;;;;;;;;;;;;;;21.19;40.94;100842.03;5057557;28;20021;-83
2023/07/26 05:27:48;;;;;;;;;;;;;;;21.19;41.12;100846.66;5058586;28;19917;-83
2023/07/26 05:30:15;;;;;;;;;;;;;;;21.24;41.11;100841.91;5063905;28;20556;-83
2023/07/26 05:32:40;;;;;;;;;;;;;;;21.29;40.84;100841.75;5063602;28;19920;-83
2023/07/26 05:35:05;;;;;;;;;;;;;;;21.34;41.08;100843.50;5061939;28;19946;-82
2023/07/26 05:37:34;;;;;;;;;;;;;;;21.37;40.95;100840.97;5059489;28;20300;-83
2023/07/26 05:40:00;;;;;;;;;;;;;;;21.44;41.18;100843.22;5057857;28;20454;-83
2023/07/26 05:42:25;;;;;;;;;;;;;;;21.55;41.08;100843.72;5057340;28;19916;-83
2023/07/26 05:44:50;;;;;;;;;;;;;;;21.56;41.47;100839.88;5061656;28;20030;-84
2023/07/26 05:47:15;;;;;;;;;;;;;;;21.58;41.20;100841.16;5059744;28;20464;-83
2023/07/26 05:49:42;;;;;;;;;;;;;;;21.62;41.16;100844.03;5053441;28;19920;-82
2023/07/26 05:52:07;;;;;;;;;;;;;;;21.72;40.96;100846.44;5059205;28;19924;-83
2023/07/26 05:54:33;;;;;;;;;;;;;;;21.79;41.03;100848.69;5058072;28;19927;-82
2023/07/26 05:56:58;;;;;;;;;;;;;;;21.86;40.92;100849.81;5057082;28;19924;-84
2023/07/26 05:59:23;;;;;;;;;;;;;;;21.90;40.69;100845.34;5053498;28;19932;-83
2023/07/26 06:01:48;;;;;;;;;;;;;;;21.92;40.52;100845.00;5055832;28;19931;-83
2023/07/26 06:04:14;;;;;;;;;;;;;;;21.92;40.75;100851.28;5054156;28;20111;-83
2023/07/26 06:06:39;;;;;;;;;;;;;;;22.00;40.80;100850.44;5055311;28;19994;-83
2023/07/26 06:09:05;;;;;;;;;;;;;;;22.09;40.88;100858.66;5057764;28;19928;-83
2023/07/26 06:11:30;;;;;;;;;;;;;;;22.10;40.67;100848.56;5058806;28;19971;-83
2023/07/26 06:13:56;;;;;;;;;;;;;;;22.05;40.47;100852.22;5054268;28;19928;-82
2023/07/26 06:16:21;;;;;;;;;;;;;;;22.09;40.47;100855.94;5056838;28;19975;-83
2023/07/26 06:18:46;;;;;;;;;;;;;;;22.13;40.73;100861.56;5055557;28;20133;-83
2023/07/26 06:21:12;;;;;;;;;;;;;;;22.22;40.54;100851.41;5056893;28;19974;-84
2023/07/26 06:23:37;;;;;;;;;;;;;;;;;;5058540;28;19952;-83
2023/07/26 06:26:02;;;;;;;;;;;;;;;22.48;40.20;100862.28;5059084;28;19932;-83
2023/07/26 06:28:27;;;;;;;;;;;;;;;22.54;40.25;100852.78;5057533;28;20410;-83
2023/07/26 06:30:53;;;;;;;;;;;;;;;22.61;40.07;100861.28;5058351;28;20373;-83
2023/07/26 06:33:18;;;;;;;;;;;;;;;22.55;40.17;100859.84;5059306;28;19924;-83
2023/07/26 06:35:43;;;;;;;;;;;;;;;22.56;40.16;100865.00;5059701;28;19924;-83
2023/07/26 06:38:09;;;;;;;;;;;;;;;22.52;40.09;100868.69;5059885;28;19927;-82
2023/07/26 06:40:34;;;;;;;;;;;;;;;22.53;39.94;100873.84;5059659;28;19924;-83
2023/07/26 06:42:59;;;;;;;;;;;;;;;22.55;40.19;100874.31;5057401;28;20022;-83
2023/07/26 06:45:25;;;;;;;;;;;;;;;22.69;40.36;100879.56;5055809;28;20422;-84
2023/07/26 06:47:50;;;;;;;;;;;;;;;22.84;39.93;100870.09;5057954;28;19921;-83
2023/07/26 06:50:15;;;;;;;;;;;;;;;22.87;39.61;100878.41;5056857;28;19936;-84
2023/07/26 06:52:40;;;;;;;;;;;;;;;22.94;39.80;100882.56;5058506;28;19924;-83
2023/07/26 06:55:06;;;;;;;;;;;;;;;23.07;39.59;100887.81;5053704;28;19921;-83
2023/07/26 06:57:31;;;;;;;;;;;;;;;23.14;39.30;100884.56;5050743;28;20367;-84
2023/07/26 06:59:56;;;;;;;;;;;;;;;23.16;39.33;100885.84;5060443;28;20345;-84
2023/07/26 07:02:22;;;;;;;;;;;;;;;23.24;39.28;100881.47;5058538;28;19930;-83
2023/07/26 07:04:47;;;;;;;;;;;;;;;23.34;39.39;100883.84;5055014;28;20467;-82
2023/07/26 07:07:12;;;;;;;;;;;;;;;23.48;39.09;100887.09;5056201;28;20460;-83
2023/07/26 07:09:38;;;;;;;;;;;;;;;23.63;39.04;100890.41;5060208;28;19924;-83
2023/07/26 07:12:04;;;;;;;;;;;;;;;23.71;38.78;100890.38;5056797;28;19920;-83
2023/07/26 07:14:29;;;;;;;;;;;;;;;23.74;38.88;100889.72;5059434;28;19920;-82
2023/07/26 07:16:54;;;;;;;;;;;;;;;23.78;38.75;100896.09;5055359;28;20015;-83
2023/07/26 07:19:20;;;;;;;;;;;;;;;23.80;38.63;100893.84;5058735;28;19932;-83
2023/07/26 07:21:45;;;;;;;;;;;;;;;23.83;38.54;100891.56;5055592;28;20446;-85
2023/07/26 07:24:10;;;;;;;;;;;;;;;23.86;38.53;100890.88;5056722;28;19944;-84
2023/07/26 07:26:35;;;;;;;;;;;;;;;23.91;38.50;100894.25;5061873;28;19921;-83
2023/07/26 07:29:01;;;;;;;;;;;;;;;23.97;38.27;100892.91;5062206;28;19974;-83
2023/07/26 07:31:26;;;;;;;;;;;;;;;24.07;38.34;100892.50;5064515;28;20384;-85
2023/07/26 07:33:51;;;;;;;;;;;;;;;24.19;38.27;100891.72;5061750;28;19921;-86
2023/07/26 07:36:19;;;;;;;;;;;;;;;24.30;37.82;100892.97;5059183;28;20365;-85
2023/07/26 07:38:45;;;;;;;;;;;;;;;24.35;37.78;100891.94;5064269;28;19952;-83
2023/07/26 07:41:11;;;;;;;;;;;;;;;24.40;37.71;100889.78;5062308;28;20180;-84
2023/07/26 07:43:36;;;;;;;;;;;;;;;24.44;37.49;100891.88;5062886;28;19987;-84
2023/07/26 07:46:01;;;;;;;;;;;;;;;24.49;37.51;100889.72;5064062;28;20369;-84
2023/07/26 07:48:27;;;;;;;;;;;;;;;24.56;37.77;100889.94;5064629;28;20009;-82
2023/07/26 07:50:54;;;;;;;;;;;;;;;24.64;37.50;100889.06;5067573;28;20403;-82
2023/07/26 07:53:19;;;;;;;;;;;;;;;24.69;37.46;100901.75;5067535;28;19924;-82
2023/07/26 07:55:44;;;;;;;;;;;;;;;24.61;37.07;100894.44;5066992;28;19931;-82
2023/07/26 07:58:10;;;;;;;;;;;;;;;24.53;37.49;100892.56;5067306;28;19924;-82
2023/07/26 08:00:35;;;;;;;;;;;;;;;24.53;37.38;100896.09;5068412;28;19931;-84
2023/07/26 08:03:01;;;;;;;;;;;;;;;24.58;37.29;100900.56;5066541;28;20460;-84
2023/07/26 08:05:26;;;;;;;;;;;;;;;24.64;37.18;100897.28;5066654;28;19935;-82
2023/07/26 08:07:52;;;;;;;;;;;;;;;24.64;37.16;100900.03;5064057;28;19951;-83
2023/07/26 08:10:17;;;;;;;;;;;;;;;24.64;37.12;100899.22;5063752;28;19916;-83
2023/07/26 08:12:43;;;;;;;;;;;;;;;24.70;37.16;100892.38;5061558;28;20762;-84
2023/07/26 08:15:08;;;;;;;;;;;;;;;24.75;37.17;100894.88;5066360;28;20283;-83
2023/07/26 08:17:34;;;;;;;;;;;;;;;24.88;37.18;100893.78;5064197;28;19920;-83
2023/07/26 08:19:59;;;;;;;;;;;;;;;24.98;36.73;100889.81;5067664;28;19939;-82
2023/07/26 08:22:24;;;;;;;;;;;;;;;25.04;36.56;100891.19;5061326;28;19928;-82
2023/07/26 08:24:53;;;;;;;;;;;;;;;25.06;36.60;100888.91;5062588;28;20487;-81
2023/07/26 08:27:18;;;;;;;;;;;;;;;25.15;36.60;100888.81;5059756;28;19916;-85
2023/07/26 08:29:43;;;;;;;;;;;;;;;25.30;36.71;100888.09;5060536;28;20396;-83
2023/07/26 08:32:08;;;;;;;;;;;;;;;25.47;36.18;100890.59;5061397;28;19924;-85
2023/07/26 08:34:34;;;;;;;;;;;;;;;25.58;35.98;100879.97;5060271;28;19924;-85
2023/07/26 08:36:59;;;;;;;;;;;;;;;25.57;35.72;100883.84;5060349;28;19928;-86
2023/07/26 08:39:24;;;;;;;;;;;;;;;25.50;35.67;100887.19;5062006;28;19994;-86
2023/07/26 08:41:51;;;;;;;;;;;;;;;25.53;35.25;100888.44;5056017;28;19921;-85
2023/07/26 08:44:17;;;;;;;;;;;;;;;25.60;35.29;100892.19;5057985;28;20119;-85
2023/07/26 08:46:43;;;;;;;;;;;;;;;25.70;35.15;100895.63;5055317;28;20411;-85
2023/07/26 08:49:09;;;;;;;;;;;;;;;25.82;34.90;100898.34;5055234;28;19963;-82
2023/07/26 08:51:34;;;;;;;;;;;;;;;25.89;34.62;100887.59;5057696;28;20079;-84
2023/07/26 08:54:00;;;;;;;;;;;;;;;25.99;34.52;100898.06;5064967;28;19923;-88
2023/07/26 08:56:27;;;;;;;;;;;;;;;26.03;34.00;100888.00;5060037;28;19931;-86
2023/07/26 08:58:52;;;;;;;;;;;;;;;26.11;34.57;100887.03;5059207;28;19927;-85
2023/07/26 09:01:19;;;;;;;;;;;;;;;26.27;34.67;100889.03;5057494;28;19924;-84
2023/07/26 09:03:44;;;;;;;;;;;;;;;26.29;33.43;100892.22;5056547;28;19931;-85
2023/07/26 09:06:09;;;;;;;;;;;;;;;26.32;34.32;100889.56;5057251;28;19928;-83
2023/07/26 09:08:35;;;;;;;;;;;;;;;26.40;34.37;100896.09;5060683;28;20016;-84
2023/07/26 09:11:03;;;;;;;;;;;;;;;26.52;34.16;100896.00;5060900;28;20352;-83
2023/07/26 09:13:29;;;;;;;;;;;;;;;26.73;34.06;100898.53;5054237;28;19921;-86
2023/07/26 09:15:54;;;;;;;;;;;;;;;26.93;33.48;100904.91;5054347;28;19980;-87
2023/07/26 09:18:20;;;;;;;;;;;;;;;27.07;33.31;100886.84;5059877;28;19921;-88
2023/07/26 09:20:45;;;;;;;;;;;;;;;27.17;33.18;100891.03;5065420;28;20279;-90
2023/07/26 09:23:11;;;;;;;;;;;;;;;27.25;32.46;100898.28;5062409;28;19956;-84
2023/07/26 09:25:39;;;;;;;;;;;;;;;27.26;32.69;100888.84;5066044;28;20155;-84
2023/07/26 09:28:08;;;;;;;;;;;;;;;27.25;32.98;100892.78;5060511;28;19920;-85
2023/07/26 09:30:36;;;;;;;;;;;;;;;27.26;32.62;100899.06;5057882;28;19921;-86
2023/07/26 09:33:01;;;;;;;;;;;;;;;27.19;32.27;100899.72;5063299;28;19925;-85
2023/07/26 09:35:27;;;;;;;;;;;;;;;27.10;32.51;100891.63;5059535;28;20283;-85
2023/07/26 09:37:52;;;;;;;;;;;;;;;27.15;32.67;100895.28;5064404;28;19916;-85
2023/07/26 09:40:30;;;;;;;;;;;;;;;27.33;32.51;100905.56;5063679;28;19917;-86
2023/07/26 09:42:55;;;;;;;;;;;;;;;27.46;32.11;100897.97;5063616;28;20438;-84
2023/07/26 09:45:21;;;;;;;;;;;;;;;27.50;32.09;100896.09;5064568;28;19931;-85
2023/07/26 09:47:46;;;;;;;;;;;;;;;27.59;31.67;100896.69;5059508;28;20403;-85
2023/07/26 09:50:25;;;;;;;;;;;;;;;27.81;32.12;100892.47;5060127;28;19927;-85
2023/07/26 09:52:55;;;;;;;;;;;;;;;27.98;31.69;100899.50;5052649;28;19924;-85
2023/07/26 09:55:25;;;;;;;;;;;;;;;28.05;31.58;100899.66;5067542;28;19963;-88
2023/07/26 09:57:52;;;;;;;;;;;;;;;28.11;31.37;100897.41;5062064;28;19923;-90
2023/07/26 10:00:18;;;;;;;;;;;;;;;28.17;31.13;100898.69;5067394;28;19925;-88
2023/07/26 10:02:45;;;;;;;;;;;;;;;28.09;31.01;100905.25;5058759;28;19931;-85
2023/07/26 10:05:14;;;;;;;;;;;;;;;28.06;31.12;100897.72;5063472;28;19941;-86
2023/07/26 10:07:40;;;;;;;;;;;;;;;28.06;30.58;100883.94;5063161;28;19916;-86
2023/07/26 10:10:06;;;;;;;;;;;;;;;27.98;30.85;100886.53;5063070;28;20015;-85
2023/07/26 10:12:32;;;;;;;;;;;;;;;27.97;31.04;100884.94;5062630;28;19973;-86
2023/07/26 10:14:58;;;;;;;;;;;;;;;28.02;31.04;100896.84;5058160;28;20425;-85
2023/07/26 10:17:25;;;;;;;;;;;;;;;28.25;31.09;100893.00;5060621;28;19920;-86
2023/07/26 10:19:51;;;;;;;;;;;;;;;28.54;30.62;100877.78;5061145;28;19916;-84
2023/07/26 10:22:16;;;;;;;;;;;;;;;28.72;30.06;100888.31;5056089;28;19986;-85
2023/07/26 10:24:44;;;;;;;;;;;;;;;28.66;29.41;100890.59;5055017;28;20388;-84
2023/07/26 10:27:10;;;;;;;;;;;;;;;28.58;30.06;100889.69;5058816;28;19924;-85
2023/07/26 10:29:36;;;;;;;;;;;;;;;28.44;29.46;100886.69;5056994;28;19920;-85
2023/07/26 10:32:06;;;;;;;;;;;;;;;28.39;30.02;100892.50;5054363;28;19958;-86
2023/07/26 10:34:31;;;;;;;;;;;;;;;28.40;30.06;100885.03;5055798;28;19927;-84
2023/07/26 10:36:57;;;;;;;;;;;;;;;28.43;29.88;100885.09;5059315;28;20293;-85
2023/07/26 10:39:30;;;;;;;;;;;;;;;28.46;29.66;100884.34;5057167;28;20580;-85
2023/07/26 10:41:55;;;;;;;;;;;;;;;28.47;29.78;100887.91;5050542;28;20392;-85
2023/07/26 10:44:20;;;;;;;;;;;;;;;28.48;29.79;100887.53;5055699;28;19921;-85
2023/07/26 10:46:50;;;;;;;;;;;;;;;28.61;29.85;100881.84;5054210;28;19927;-85
2023/07/26 10:49:17;;;;;;;;;;;;;;;28.76;29.69;100883.69;5056862;28;19951;-86
2023/07/26 10:51:49;;;;;;;;;;;;;;;28.95;29.56;100875.38;5052406;28;19927;-87
2023/07/26 10:54:31;;;;;;;;;;;;;;;29.19;28.97;100868.66;5051716;28;20393;-86
2023/07/26 10:57:20;;;;;;;;;;;;;;;29.54;29.38;100864.84;5055492;28;19924;-85
2023/07/26 10:59:56;;;;;;;;;;;;;;;29.55;28.08;100867.22;5057093;28;20409;-85
2023/07/26 11:02:50;;;;;;;;;;;;;;;29.44;28.32;100872.59;5050843;28;19928;-86
2023/07/26 11:05:17;;;;;;;;;;;;;;;29.45;28.65;100867.84;5038936;28;20030;-87
2023/07/26 11:07:53;;;;;;;;;;;;;;;29.59;28.90;100868.06;5055441;28;20007;-83
2023/07/26 11:10:21;;;;;;;;;;;;;;;29.60;27.88;100872.41;5054128;28;19931;-90
2023/07/26 11:12:50;;;;;;;;;;;;;;;29.51;28.29;100874.66;5059913;28;20008;-87
2023/07/26 11:15:26;;;;;;;;;;;;;;;29.41;28.04;100873.31;5057517;28;20080;-85
2023/07/26 11:17:52;;;;;;;;;;;;;;;29.32;28.10;100874.75;5057000;28;19973;-86
2023/07/26 11:20:18;;;;;;;;;;;;;;;29.25;28.12;100872.66;5059449;28;20329;-86
2023/07/26 11:22:43;;;;;;;;;;;;;;;29.27;27.92;100866.81;5054858;28;20028;-85
2023/07/26 11:25:09;;;;;;;;;;;;;;;29.31;28.02;100862.13;5060940;28;19931;-85
2023/07/26 11:27:35;;;;;;;;;;;;;;;29.41;28.28;100867.78;5056577;28;20032;-88
2023/07/26 11:30:01;;;;;;;;;;;;;;;29.51;27.73;100871.91;5060915;28;20058;-87
2023/07/26 11:32:28;;;;;;;;;;;;;;;29.65;28.02;100871.31;5058992;28;19920;-85
2023/07/26 11:34:57;;;;;;;;;;;;;;;29.59;28.06;100889.34;5058205;28;20388;-83
2023/07/26 11:37:22;;;;;;;;;;;;;;;29.24;29.20;100928.22;5057417;28;19993;-86
2023/07/26 11:40:00;;;;;;;;;;;;;;;28.89;29.77;100896.13;5058211;28;20380;-86
2023/07/26 11:42:25;;;;;;;;;;;;;;;28.77;31.24;100888.03;5057435;28;19932;-85
2023/07/26 11:44:50;;;;;;;;;;;;;;;28.78;31.73;100884.13;5057023;28;19928;-86
2023/07/26 11:47:15;;;;;;;;;;;;;;;28.85;31.43;100879.50;5060910;28;19925;-85
2023/07/26 11:49:41;;;;;;;;;;;;;;;28.94;31.59;100878.50;5059144;28;19925;-85
2023/07/26 11:52:11;;;;;;;;;;;;;;;29.07;31.45;100877.91;5054587;28;19924;-83
2023/07/26 11:54:52;;;;;;;;;;;;;;;29.25;31.32;100880.16;5057727;28;19949;-83
2023/07/26 11:57:20;;;;;;;;;;;;;;;29.33;31.19;100876.34;5059930;28;19929;-83
2023/07/26 11:59:46;;;;;;;;;;;;;;;29.39;31.40;100872.88;5060745;28;20420;-83
2023/07/26 12:02:11;;;;;;;;;;;;;;;29.49;31.80;100868.72;5061310;28;20007;-83
2023/07/26 12:04:36;;;;;;;;;;;;;;;29.50;30.78;100877.78;5057673;28;20293;-86
2023/07/26 12:07:05;;;;;;;;;;;;;;;29.40;31.00;100881.97;5060330;28;21697;-83
2023/07/26 12:09:30;;;;;;;;;;;;;;;29.10;30.65;100885.47;5055374;28;19932;-85
2023/07/26 12:11:57;;;;;;;;;;;;;;;28.86;30.75;100885.84;5059975;28;19924;-85
2023/07/26 12:14:23;;;;;;;;;;;;;;;28.72;31.07;100885.56;5058147;28;19920;-84
2023/07/26 12:16:52;;;;;;;;;;;;;;;28.63;31.59;100885.03;5052785;28;19955;-85
2023/07/26 12:19:21;;;;;;;;;;;;;;;28.55;31.92;100886.88;5063110;28;19920;-85
2023/07/26 12:21:47;;;;;;;;;;;;;;;28.49;31.67;100880.84;5060454;28;19927;-85
2023/07/26 12:24:12;;;;;;;;;;;;;;;28.49;31.67;100883.59;5056849;28;19920;-84
2023/07/26 12:26:40;;;;;;;;;;;;;;;28.55;31.47;100876.66;5055702;28;19921;-85
2023/07/26 12:29:06;;;;;;;;;;;;;;;28.71;31.23;100872.94;5060114;28;19932;-83
2023/07/26 12:31:34;;;;;;;;;;;;;;;28.85;31.06;100874.00;5061564;28;19920;-83
2023/07/26 12:34:00;;;;;;;;;;;;;;;29.11;31.03;100881.53;5055179;28;19999;-83